sensor_id;sensor_type;location;lat;lon;timestamp;P1;durP1;ratioP1;P2;durP2;ratioP2
64757;SDS011;51193;45.588;5.376;2022-07-21T00:01:09;9.48;;;6.25;;
64757;SDS011;51193;45.588;5.376;2022-07-21T00:03:35;10.48;;;6.93;;
64757;SDS011;51193;45.588;5.376;2022-07-21T00:06:02;12.57;;;6.82;;
64757;SDS011;51193;45.588;5.376;2022-07-21T00:08:27;11.27;;;6.90;;
64757;SDS011;51193;45.588;5.376;2022-07-21T00:10:53;10.00;;;6.55;;
64757;SDS011;51193;45.588;5.376;2022-07-21T00:13:18;9.40;;;6.82;;
64757;SDS011;51193;45.588;5.376;2022-07-21T00:15:44;9.82;;;6.57;;
64757;SDS011;51193;45.588;5.376;2022-07-21T00:18:10;8.48;;;6.35;;
64757;SDS011;51193;45.588;5.376;2022-07-21T00:20:35;8.20;;;6.22;;
64757;SDS011;51193;45.588;5.376;2022-07-21T00:23:01;9.48;;;6.63;;
64757;SDS011;51193;45.588;5.376;2022-07-21T00:25:26;9.63;;;6.68;;
64757;SDS011;51193;45.588;5.376;2022-07-21T00:27:52;8.65;;;6.93;;
64757;SDS011;51193;45.588;5.376;2022-07-21T00:30:17;9.00;;;6.85;;
64757;SDS011;51193;45.588;5.376;2022-07-21T00:32:43;10.90;;;7.07;;
64757;SDS011;51193;45.588;5.376;2022-07-21T00:35:10;9.52;;;6.45;;
64757;SDS011;51193;45.588;5.376;2022-07-21T00:37:36;9.43;;;6.80;;
64757;SDS011;51193;45.588;5.376;2022-07-21T00:40:02;10.32;;;6.72;;
64757;SDS011;51193;45.588;5.376;2022-07-21T00:42:29;10.27;;;6.72;;
64757;SDS011;51193;45.588;5.376;2022-07-21T00:44:56;9.18;;;6.53;;
64757;SDS011;51193;45.588;5.376;2022-07-21T00:47:22;12.18;;;6.88;;
64757;SDS011;51193;45.588;5.376;2022-07-21T00:49:49;15.68;;;6.80;;
64757;SDS011;51193;45.588;5.376;2022-07-21T00:52:14;13.52;;;6.90;;
64757;SDS011;51193;45.588;5.376;2022-07-21T00:54:41;10.00;;;6.60;;
64757;SDS011;51193;45.588;5.376;2022-07-21T00:57:08;10.10;;;6.63;;
64757;SDS011;51193;45.588;5.376;2022-07-21T00:59:34;8.63;;;6.38;;
64757;SDS011;51193;45.588;5.376;2022-07-21T01:02:00;10.60;;;6.55;;
64757;SDS011;51193;45.588;5.376;2022-07-21T01:04:26;8.43;;;6.35;;
64757;SDS011;51193;45.588;5.376;2022-07-21T01:06:53;12.40;;;7.20;;
64757;SDS011;51193;45.588;5.376;2022-07-21T01:09:19;11.13;;;6.82;;
64757;SDS011;51193;45.588;5.376;2022-07-21T01:11:45;9.80;;;6.85;;
64757;SDS011;51193;45.588;5.376;2022-07-21T01:14:11;11.60;;;6.60;;
64757;SDS011;51193;45.588;5.376;2022-07-21T01:16:37;9.95;;;6.47;;
64757;SDS011;51193;45.588;5.376;2022-07-21T01:19:02;10.82;;;6.72;;
64757;SDS011;51193;45.588;5.376;2022-07-21T01:21:34;12.93;;;7.57;;
64757;SDS011;51193;45.588;5.376;2022-07-21T01:24:04;14.25;;;7.32;;
64757;SDS011;51193;45.588;5.376;2022-07-21T01:26:30;8.27;;;6.50;;
64757;SDS011;51193;45.588;5.376;2022-07-21T01:28:57;10.93;;;6.70;;
64757;SDS011;51193;45.588;5.376;2022-07-21T01:31:23;10.30;;;6.68;;
64757;SDS011;51193;45.588;5.376;2022-07-21T01:33:49;10.40;;;7.13;;
64757;SDS011;51193;45.588;5.376;2022-07-21T01:36:15;12.52;;;6.90;;
64757;SDS011;51193;45.588;5.376;2022-07-21T01:38:41;11.18;;;6.18;;
64757;SDS011;51193;45.588;5.376;2022-07-21T01:41:25;10.77;;;7.28;;
64757;SDS011;51193;45.588;5.376;2022-07-21T01:43:54;9.88;;;6.53;;
64757;SDS011;51193;45.588;5.376;2022-07-21T01:46:20;9.13;;;6.93;;
64757;SDS011;51193;45.588;5.376;2022-07-21T01:48:45;8.75;;;7.03;;
64757;SDS011;51193;45.588;5.376;2022-07-21T01:51:11;10.80;;;6.60;;
64757;SDS011;51193;45.588;5.376;2022-07-21T01:53:37;13.50;;;7.30;;
64757;SDS011;51193;45.588;5.376;2022-07-21T01:56:03;13.15;;;7.55;;
64757;SDS011;51193;45.588;5.376;2022-07-21T01:58:30;11.88;;;7.45;;
64757;SDS011;51193;45.588;5.376;2022-07-21T02:00:56;11.13;;;7.68;;
64757;SDS011;51193;45.588;5.376;2022-07-21T02:03:21;12.27;;;7.30;;
64757;SDS011;51193;45.588;5.376;2022-07-21T02:05:47;12.05;;;7.47;;
64757;SDS011;51193;45.588;5.376;2022-07-21T02:08:12;10.68;;;7.18;;
64757;SDS011;51193;45.588;5.376;2022-07-21T02:10:37;12.98;;;7.38;;
64757;SDS011;51193;45.588;5.376;2022-07-21T02:13:03;11.40;;;7.03;;
64757;SDS011;51193;45.588;5.376;2022-07-21T02:15:29;10.13;;;7.30;;
64757;SDS011;51193;45.588;5.376;2022-07-21T02:17:56;14.95;;;8.95;;
64757;SDS011;51193;45.588;5.376;2022-07-21T02:20:22;11.65;;;7.43;;
64757;SDS011;51193;45.588;5.376;2022-07-21T02:22:48;11.13;;;7.97;;
64757;SDS011;51193;45.588;5.376;2022-07-21T02:25:14;12.75;;;7.95;;
64757;SDS011;51193;45.588;5.376;2022-07-21T02:27:40;13.80;;;7.65;;
64757;SDS011;51193;45.588;5.376;2022-07-21T02:30:07;11.85;;;7.93;;
64757;SDS011;51193;45.588;5.376;2022-07-21T02:32:33;12.25;;;7.68;;
64757;SDS011;51193;45.588;5.376;2022-07-21T02:34:58;13.02;;;7.65;;
64757;SDS011;51193;45.588;5.376;2022-07-21T02:37:24;9.63;;;7.50;;
64757;SDS011;51193;45.588;5.376;2022-07-21T02:39:49;10.30;;;7.80;;
64757;SDS011;51193;45.588;5.376;2022-07-21T02:42:14;11.50;;;7.55;;
64757;SDS011;51193;45.588;5.376;2022-07-21T02:44:40;12.25;;;7.10;;
64757;SDS011;51193;45.588;5.376;2022-07-21T02:47:05;11.70;;;7.53;;
64757;SDS011;51193;45.588;5.376;2022-07-21T02:49:31;9.85;;;6.85;;
64757;SDS011;51193;45.588;5.376;2022-07-21T02:51:56;12.05;;;7.35;;
64757;SDS011;51193;45.588;5.376;2022-07-21T02:54:22;14.65;;;7.25;;
64757;SDS011;51193;45.588;5.376;2022-07-21T02:56:47;10.63;;;7.20;;
64757;SDS011;51193;45.588;5.376;2022-07-21T02:59:13;11.95;;;7.70;;
64757;SDS011;51193;45.588;5.376;2022-07-21T03:01:38;9.18;;;6.97;;
64757;SDS011;51193;45.588;5.376;2022-07-21T03:04:04;9.52;;;6.70;;
64757;SDS011;51193;45.588;5.376;2022-07-21T03:06:29;10.45;;;6.93;;
64757;SDS011;51193;45.588;5.376;2022-07-21T03:08:55;9.00;;;6.47;;
64757;SDS011;51193;45.588;5.376;2022-07-21T03:11:20;7.75;;;6.45;;
64757;SDS011;51193;45.588;5.376;2022-07-21T03:13:45;8.98;;;6.20;;
64757;SDS011;51193;45.588;5.376;2022-07-21T03:16:11;8.88;;;6.25;;
64757;SDS011;51193;45.588;5.376;2022-07-21T03:18:36;10.48;;;6.88;;
64757;SDS011;51193;45.588;5.376;2022-07-21T03:21:02;8.52;;;6.80;;
64757;SDS011;51193;45.588;5.376;2022-07-21T03:23:27;10.43;;;6.75;;
64757;SDS011;51193;45.588;5.376;2022-07-21T03:25:53;10.73;;;6.72;;
64757;SDS011;51193;45.588;5.376;2022-07-21T03:28:18;10.27;;;7.32;;
64757;SDS011;51193;45.588;5.376;2022-07-21T03:30:44;9.77;;;6.65;;
64757;SDS011;51193;45.588;5.376;2022-07-21T03:33:09;9.60;;;6.90;;
64757;SDS011;51193;45.588;5.376;2022-07-21T03:35:35;11.65;;;6.70;;
64757;SDS011;51193;45.588;5.376;2022-07-21T03:38:03;10.65;;;6.90;;
64757;SDS011;51193;45.588;5.376;2022-07-21T03:40:31;11.60;;;7.07;;
64757;SDS011;51193;45.588;5.376;2022-07-21T03:42:58;10.82;;;7.00;;
64757;SDS011;51193;45.588;5.376;2022-07-21T03:45:25;9.57;;;6.72;;
64757;SDS011;51193;45.588;5.376;2022-07-21T03:47:52;15.50;;;6.75;;
64757;SDS011;51193;45.588;5.376;2022-07-21T03:50:17;11.20;;;6.82;;
64757;SDS011;51193;45.588;5.376;2022-07-21T03:52:43;11.73;;;7.10;;
64757;SDS011;51193;45.588;5.376;2022-07-21T03:55:10;12.52;;;7.00;;
64757;SDS011;51193;45.588;5.376;2022-07-21T03:57:41;10.52;;;6.82;;
64757;SDS011;51193;45.588;5.376;2022-07-21T04:00:10;10.35;;;6.78;;
64757;SDS011;51193;45.588;5.376;2022-07-21T04:02:39;14.10;;;7.10;;
64757;SDS011;51193;45.588;5.376;2022-07-21T04:05:07;13.52;;;7.25;;
64757;SDS011;51193;45.588;5.376;2022-07-21T04:07:35;9.63;;;7.07;;
64757;SDS011;51193;45.588;5.376;2022-07-21T04:10:01;11.43;;;6.70;;
64757;SDS011;51193;45.588;5.376;2022-07-21T04:12:27;8.80;;;6.80;;
64757;SDS011;51193;45.588;5.376;2022-07-21T04:14:53;8.77;;;6.50;;
64757;SDS011;51193;45.588;5.376;2022-07-21T04:17:20;14.00;;;7.00;;
64757;SDS011;51193;45.588;5.376;2022-07-21T04:19:45;11.07;;;7.20;;
64757;SDS011;51193;45.588;5.376;2022-07-21T04:22:11;10.13;;;7.13;;
64757;SDS011;51193;45.588;5.376;2022-07-21T04:24:36;10.52;;;6.75;;
64757;SDS011;51193;45.588;5.376;2022-07-21T04:27:01;11.82;;;8.10;;
64757;SDS011;51193;45.588;5.376;2022-07-21T04:29:27;11.55;;;8.27;;
64757;SDS011;51193;45.588;5.376;2022-07-21T04:31:53;10.70;;;8.00;;
64757;SDS011;51193;45.588;5.376;2022-07-21T04:34:19;12.07;;;7.78;;
64757;SDS011;51193;45.588;5.376;2022-07-21T04:36:44;11.45;;;7.93;;
64757;SDS011;51193;45.588;5.376;2022-07-21T04:39:10;13.00;;;8.50;;
64757;SDS011;51193;45.588;5.376;2022-07-21T04:41:35;12.75;;;7.93;;
64757;SDS011;51193;45.588;5.376;2022-07-21T04:44:01;11.07;;;7.72;;
64757;SDS011;51193;45.588;5.376;2022-07-21T04:46:26;14.20;;;8.60;;
64757;SDS011;51193;45.588;5.376;2022-07-21T04:48:51;13.70;;;8.25;;
64757;SDS011;51193;45.588;5.376;2022-07-21T04:51:17;11.80;;;8.15;;
64757;SDS011;51193;45.588;5.376;2022-07-21T04:53:42;12.18;;;8.45;;
64757;SDS011;51193;45.588;5.376;2022-07-21T04:56:09;12.43;;;8.23;;
64757;SDS011;51193;45.588;5.376;2022-07-21T04:58:34;14.15;;;8.27;;
64757;SDS011;51193;45.588;5.376;2022-07-21T05:01:00;13.48;;;8.07;;
64757;SDS011;51193;45.588;5.376;2022-07-21T05:03:25;15.60;;;8.82;;
64757;SDS011;51193;45.588;5.376;2022-07-21T05:05:50;13.30;;;8.32;;
64757;SDS011;51193;45.588;5.376;2022-07-21T05:08:16;12.57;;;8.38;;
64757;SDS011;51193;45.588;5.376;2022-07-21T05:10:41;13.25;;;8.18;;
64757;SDS011;51193;45.588;5.376;2022-07-21T05:13:07;12.18;;;8.63;;
64757;SDS011;51193;45.588;5.376;2022-07-21T05:15:32;17.77;;;8.75;;
64757;SDS011;51193;45.588;5.376;2022-07-21T05:17:57;12.88;;;8.10;;
64757;SDS011;51193;45.588;5.376;2022-07-21T05:20:23;12.45;;;8.25;;
64757;SDS011;51193;45.588;5.376;2022-07-21T05:22:48;16.05;;;8.68;;
64757;SDS011;51193;45.588;5.376;2022-07-21T05:25:14;11.82;;;8.60;;
64757;SDS011;51193;45.588;5.376;2022-07-21T05:27:39;12.60;;;8.48;;
64757;SDS011;51193;45.588;5.376;2022-07-21T05:30:05;14.18;;;8.90;;
64757;SDS011;51193;45.588;5.376;2022-07-21T05:32:31;15.40;;;9.07;;
64757;SDS011;51193;45.588;5.376;2022-07-21T05:34:56;12.35;;;8.13;;
64757;SDS011;51193;45.588;5.376;2022-07-21T05:37:21;13.93;;;8.63;;
64757;SDS011;51193;45.588;5.376;2022-07-21T05:39:47;13.75;;;8.75;;
64757;SDS011;51193;45.588;5.376;2022-07-21T05:42:12;10.48;;;7.93;;
64757;SDS011;51193;45.588;5.376;2022-07-21T05:44:38;12.77;;;8.77;;
64757;SDS011;51193;45.588;5.376;2022-07-21T05:47:03;10.27;;;8.27;;
64757;SDS011;51193;45.588;5.376;2022-07-21T05:49:29;12.60;;;8.23;;
64757;SDS011;51193;45.588;5.376;2022-07-21T05:51:54;16.00;;;8.52;;
64757;SDS011;51193;45.588;5.376;2022-07-21T05:54:19;13.35;;;8.85;;
64757;SDS011;51193;45.588;5.376;2022-07-21T05:56:45;13.15;;;8.90;;
64757;SDS011;51193;45.588;5.376;2022-07-21T05:59:10;12.93;;;8.82;;
64757;SDS011;51193;45.588;5.376;2022-07-21T06:01:36;13.70;;;9.27;;
64757;SDS011;51193;45.588;5.376;2022-07-21T06:04:01;16.13;;;8.57;;
64757;SDS011;51193;45.588;5.376;2022-07-21T06:06:26;13.43;;;8.88;;
64757;SDS011;51193;45.588;5.376;2022-07-21T06:08:52;12.57;;;8.43;;
64757;SDS011;51193;45.588;5.376;2022-07-21T06:11:18;13.70;;;8.57;;
64757;SDS011;51193;45.588;5.376;2022-07-21T06:13:45;14.95;;;9.10;;
64757;SDS011;51193;45.588;5.376;2022-07-21T06:16:10;11.73;;;7.95;;
64757;SDS011;51193;45.588;5.376;2022-07-21T06:18:36;12.88;;;8.40;;
64757;SDS011;51193;45.588;5.376;2022-07-21T06:21:02;15.88;;;8.57;;
64757;SDS011;51193;45.588;5.376;2022-07-21T06:23:28;12.30;;;7.90;;
64757;SDS011;51193;45.588;5.376;2022-07-21T06:25:54;12.60;;;8.27;;
64757;SDS011;51193;45.588;5.376;2022-07-21T06:28:20;14.30;;;8.27;;
64757;SDS011;51193;45.588;5.376;2022-07-21T06:30:46;13.98;;;7.82;;
64757;SDS011;51193;45.588;5.376;2022-07-21T06:33:12;15.15;;;7.35;;
64757;SDS011;51193;45.588;5.376;2022-07-21T06:35:38;11.82;;;8.27;;
64757;SDS011;51193;45.588;5.376;2022-07-21T06:38:03;12.00;;;7.82;;
64757;SDS011;51193;45.588;5.376;2022-07-21T06:40:29;10.73;;;8.05;;
64757;SDS011;51193;45.588;5.376;2022-07-21T06:42:55;10.68;;;7.43;;
64757;SDS011;51193;45.588;5.376;2022-07-21T06:45:21;14.18;;;8.05;;
64757;SDS011;51193;45.588;5.376;2022-07-21T06:47:47;10.55;;;7.28;;
64757;SDS011;51193;45.588;5.376;2022-07-21T06:50:12;11.48;;;7.35;;
64757;SDS011;51193;45.588;5.376;2022-07-21T06:52:38;10.13;;;7.55;;
64757;SDS011;51193;45.588;5.376;2022-07-21T06:55:04;11.98;;;6.65;;
64757;SDS011;51193;45.588;5.376;2022-07-21T06:57:31;10.15;;;7.53;;
64757;SDS011;51193;45.588;5.376;2022-07-21T06:59:57;10.02;;;7.25;;
64757;SDS011;51193;45.588;5.376;2022-07-21T07:02:23;12.65;;;6.93;;
64757;SDS011;51193;45.588;5.376;2022-07-21T07:04:48;10.90;;;7.13;;
64757;SDS011;51193;45.588;5.376;2022-07-21T07:07:14;10.48;;;6.85;;
64757;SDS011;51193;45.588;5.376;2022-07-21T07:09:39;11.65;;;6.70;;
64757;SDS011;51193;45.588;5.376;2022-07-21T07:12:06;13.40;;;7.10;;
64757;SDS011;51193;45.588;5.376;2022-07-21T07:14:35;9.05;;;6.30;;
64757;SDS011;51193;45.588;5.376;2022-07-21T07:17:01;10.73;;;6.50;;
64757;SDS011;51193;45.588;5.376;2022-07-21T07:19:28;9.10;;;5.75;;
64757;SDS011;51193;45.588;5.376;2022-07-21T07:21:53;10.10;;;6.30;;
64757;SDS011;51193;45.588;5.376;2022-07-21T07:24:19;10.23;;;7.20;;
64757;SDS011;51193;45.588;5.376;2022-07-21T07:26:45;9.68;;;6.00;;
64757;SDS011;51193;45.588;5.376;2022-07-21T07:29:10;12.88;;;6.28;;
64757;SDS011;51193;45.588;5.376;2022-07-21T07:31:36;8.27;;;5.60;;
64757;SDS011;51193;45.588;5.376;2022-07-21T07:34:02;10.85;;;6.07;;
64757;SDS011;51193;45.588;5.376;2022-07-21T07:36:28;10.77;;;5.65;;
64757;SDS011;51193;45.588;5.376;2022-07-21T07:38:55;7.35;;;5.30;;
64757;SDS011;51193;45.588;5.376;2022-07-21T07:41:21;9.55;;;5.28;;
64757;SDS011;51193;45.588;5.376;2022-07-21T07:43:49;11.38;;;5.82;;
64757;SDS011;51193;45.588;5.376;2022-07-21T07:46:16;9.77;;;5.55;;
64757;SDS011;51193;45.588;5.376;2022-07-21T07:48:42;9.07;;;4.65;;
64757;SDS011;51193;45.588;5.376;2022-07-21T07:51:08;11.70;;;5.07;;
64757;SDS011;51193;45.588;5.376;2022-07-21T07:53:34;10.52;;;5.18;;
64757;SDS011;51193;45.588;5.376;2022-07-21T07:56:00;8.25;;;5.28;;
64757;SDS011;51193;45.588;5.376;2022-07-21T07:58:26;12.68;;;5.13;;
64757;SDS011;51193;45.588;5.376;2022-07-21T08:00:51;8.60;;;4.97;;
64757;SDS011;51193;45.588;5.376;2022-07-21T08:03:17;6.38;;;4.80;;
64757;SDS011;51193;45.588;5.376;2022-07-21T08:05:42;10.15;;;4.93;;
64757;SDS011;51193;45.588;5.376;2022-07-21T08:08:08;8.43;;;4.72;;
64757;SDS011;51193;45.588;5.376;2022-07-21T08:10:34;7.97;;;4.57;;
64757;SDS011;51193;45.588;5.376;2022-07-21T08:12:59;8.30;;;4.68;;
64757;SDS011;51193;45.588;5.376;2022-07-21T08:15:25;6.97;;;4.53;;
64757;SDS011;51193;45.588;5.376;2022-07-21T08:17:50;9.70;;;4.45;;
64757;SDS011;51193;45.588;5.376;2022-07-21T08:20:16;7.80;;;4.60;;
64757;SDS011;51193;45.588;5.376;2022-07-21T08:22:41;6.47;;;4.15;;
64757;SDS011;51193;45.588;5.376;2022-07-21T08:25:07;8.63;;;4.30;;
64757;SDS011;51193;45.588;5.376;2022-07-21T08:27:32;5.75;;;3.38;;
64757;SDS011;51193;45.588;5.376;2022-07-21T08:29:58;6.78;;;3.63;;
64757;SDS011;51193;45.588;5.376;2022-07-21T08:32:23;8.10;;;3.85;;
64757;SDS011;51193;45.588;5.376;2022-07-21T08:34:49;7.43;;;3.50;;
64757;SDS011;51193;45.588;5.376;2022-07-21T08:37:14;7.10;;;3.72;;
64757;SDS011;51193;45.588;5.376;2022-07-21T08:39:40;5.68;;;3.30;;
64757;SDS011;51193;45.588;5.376;2022-07-21T08:42:06;7.00;;;3.60;;
64757;SDS011;51193;45.588;5.376;2022-07-21T08:44:33;6.40;;;3.70;;
64757;SDS011;51193;45.588;5.376;2022-07-21T08:46:59;3.72;;;2.85;;
64757;SDS011;51193;45.588;5.376;2022-07-21T08:49:25;5.45;;;3.13;;
64757;SDS011;51193;45.588;5.376;2022-07-21T08:51:52;5.28;;;3.42;;
64757;SDS011;51193;45.588;5.376;2022-07-21T08:54:19;4.57;;;2.78;;
64757;SDS011;51193;45.588;5.376;2022-07-21T08:56:46;4.60;;;2.83;;
64757;SDS011;51193;45.588;5.376;2022-07-21T08:59:12;5.70;;;2.70;;
64757;SDS011;51193;45.588;5.376;2022-07-21T09:01:37;6.75;;;2.97;;
64757;SDS011;51193;45.588;5.376;2022-07-21T09:04:19;8.10;;;2.75;;
64757;SDS011;51193;45.588;5.376;2022-07-21T09:06:55;5.22;;;2.88;;
64757;SDS011;51193;45.588;5.376;2022-07-21T09:09:24;6.82;;;2.40;;
64757;SDS011;51193;45.588;5.376;2022-07-21T09:11:51;6.72;;;2.95;;
64757;SDS011;51193;45.588;5.376;2022-07-21T09:14:18;6.65;;;2.72;;
64757;SDS011;51193;45.588;5.376;2022-07-21T09:16:48;9.02;;;2.90;;
64757;SDS011;51193;45.588;5.376;2022-07-21T09:19:26;7.07;;;3.15;;
64757;SDS011;51193;45.588;5.376;2022-07-21T09:21:53;7.88;;;2.90;;
64757;SDS011;51193;45.588;5.376;2022-07-21T09:24:28;6.30;;;2.75;;
64757;SDS011;51193;45.588;5.376;2022-07-21T09:29:40;6.72;;;2.83;;
64757;SDS011;51193;45.588;5.376;2022-07-21T09:34:38;25.52;;;4.80;;
64757;SDS011;51193;45.588;5.376;2022-07-21T09:37:04;9.68;;;3.55;;
64757;SDS011;51193;45.588;5.376;2022-07-21T09:39:43;11.25;;;2.97;;
64757;SDS011;51193;45.588;5.376;2022-07-21T09:44:39;5.72;;;2.80;;
64757;SDS011;51193;45.588;5.376;2022-07-21T09:47:14;11.43;;;3.40;;
64757;SDS011;51193;45.588;5.376;2022-07-21T09:49:41;10.93;;;3.30;;
64757;SDS011;51193;45.588;5.376;2022-07-21T09:52:20;12.88;;;3.65;;
64757;SDS011;51193;45.588;5.376;2022-07-21T09:54:47;7.57;;;2.80;;
64757;SDS011;51193;45.588;5.376;2022-07-21T09:57:14;6.53;;;2.47;;
64757;SDS011;51193;45.588;5.376;2022-07-21T09:59:42;9.07;;;3.17;;
64757;SDS011;51193;45.588;5.376;2022-07-21T10:02:16;8.75;;;2.80;;
64757;SDS011;51193;45.588;5.376;2022-07-21T10:04:49;9.02;;;2.85;;
64757;SDS011;51193;45.588;5.376;2022-07-21T10:07:20;13.25;;;3.20;;
64757;SDS011;51193;45.588;5.376;2022-07-21T10:09:47;5.53;;;2.50;;
64757;SDS011;51193;45.588;5.376;2022-07-21T10:12:14;10.32;;;3.22;;
64757;SDS011;51193;45.588;5.376;2022-07-21T10:14:41;4.72;;;2.42;;
64757;SDS011;51193;45.588;5.376;2022-07-21T10:17:06;5.65;;;2.53;;
64757;SDS011;51193;45.588;5.376;2022-07-21T10:19:34;6.53;;;2.85;;
64757;SDS011;51193;45.588;5.376;2022-07-21T10:24:43;5.82;;;2.45;;
64757;SDS011;51193;45.588;5.376;2022-07-21T10:27:09;7.72;;;2.58;;
64757;SDS011;51193;45.588;5.376;2022-07-21T10:32:20;7.00;;;2.13;;
64757;SDS011;51193;45.588;5.376;2022-07-21T10:34:52;5.47;;;2.45;;
64757;SDS011;51193;45.588;5.376;2022-07-21T10:40:06;9.85;;;2.80;;
64757;SDS011;51193;45.588;5.376;2022-07-21T10:45:36;3.53;;;2.25;;
64757;SDS011;51193;45.588;5.376;2022-07-21T10:48:04;6.47;;;2.58;;
64757;SDS011;51193;45.588;5.376;2022-07-21T10:50:32;6.38;;;2.35;;
64757;SDS011;51193;45.588;5.376;2022-07-21T10:53:16;7.82;;;2.22;;
64757;SDS011;51193;45.588;5.376;2022-07-21T10:55:46;4.43;;;2.60;;
64757;SDS011;51193;45.588;5.376;2022-07-21T10:58:29;6.70;;;2.90;;
64757;SDS011;51193;45.588;5.376;2022-07-21T11:01:03;6.15;;;2.33;;
64757;SDS011;51193;45.588;5.376;2022-07-21T11:03:33;3.83;;;2.20;;
64757;SDS011;51193;45.588;5.376;2022-07-21T11:08:35;4.13;;;2.40;;
64757;SDS011;51193;45.588;5.376;2022-07-21T11:11:13;4.90;;;2.35;;
64757;SDS011;51193;45.588;5.376;2022-07-21T11:22:04;4.05;;;2.45;;
64757;SDS011;51193;45.588;5.376;2022-07-21T11:24:44;5.22;;;2.85;;
64757;SDS011;51193;45.588;5.376;2022-07-21T11:27:13;3.95;;;2.63;;
64757;SDS011;51193;45.588;5.376;2022-07-21T11:29:44;5.20;;;2.75;;
64757;SDS011;51193;45.588;5.376;2022-07-21T11:32:11;4.93;;;2.30;;
64757;SDS011;51193;45.588;5.376;2022-07-21T11:34:45;5.95;;;2.63;;
64757;SDS011;51193;45.588;5.376;2022-07-21T11:37:14;5.80;;;2.70;;
64757;SDS011;51193;45.588;5.376;2022-07-21T11:39:44;3.65;;;2.20;;
64757;SDS011;51193;45.588;5.376;2022-07-21T11:42:12;6.15;;;2.40;;
64757;SDS011;51193;45.588;5.376;2022-07-21T11:44:40;5.70;;;2.40;;
64757;SDS011;51193;45.588;5.376;2022-07-21T11:47:06;5.40;;;2.33;;
64757;SDS011;51193;45.588;5.376;2022-07-21T11:49:34;4.38;;;2.60;;
64757;SDS011;51193;45.588;5.376;2022-07-21T11:52:10;6.40;;;2.58;;
64757;SDS011;51193;45.588;5.376;2022-07-21T11:54:45;3.85;;;2.22;;
64757;SDS011;51193;45.588;5.376;2022-07-21T11:57:11;5.05;;;2.60;;
64757;SDS011;51193;45.588;5.376;2022-07-21T11:59:38;3.83;;;2.75;;
64757;SDS011;51193;45.588;5.376;2022-07-21T12:02:10;4.43;;;2.40;;
64757;SDS011;51193;45.588;5.376;2022-07-21T12:04:41;4.38;;;2.40;;
64757;SDS011;51193;45.588;5.376;2022-07-21T12:09:51;5.38;;;2.58;;
64757;SDS011;51193;45.588;5.376;2022-07-21T12:12:28;4.03;;;2.53;;
64757;SDS011;51193;45.588;5.376;2022-07-21T12:15:11;5.93;;;2.63;;
64757;SDS011;51193;45.588;5.376;2022-07-21T12:17:38;6.28;;;2.67;;
64757;SDS011;51193;45.588;5.376;2022-07-21T12:20:12;3.63;;;2.60;;
64757;SDS011;51193;45.588;5.376;2022-07-21T12:25:04;4.57;;;2.67;;
64757;SDS011;51193;45.588;5.376;2022-07-21T12:27:32;4.65;;;2.75;;
64757;SDS011;51193;45.588;5.376;2022-07-21T12:30:00;4.78;;;2.80;;
64757;SDS011;51193;45.588;5.376;2022-07-21T12:35:31;5.53;;;2.92;;
64757;SDS011;51193;45.588;5.376;2022-07-21T12:38:11;11.02;;;2.80;;
64757;SDS011;51193;45.588;5.376;2022-07-21T12:40:42;4.93;;;3.08;;
64757;SDS011;51193;45.588;5.376;2022-07-21T12:43:13;7.55;;;3.08;;
64757;SDS011;51193;45.588;5.376;2022-07-21T12:48:15;7.90;;;3.40;;
64757;SDS011;51193;45.588;5.376;2022-07-21T12:51:06;6.97;;;3.20;;
64757;SDS011;51193;45.588;5.376;2022-07-21T12:56:07;8.75;;;3.35;;
64757;SDS011;51193;45.588;5.376;2022-07-21T12:58:33;6.63;;;3.40;;
64757;SDS011;51193;45.588;5.376;2022-07-21T13:01:00;5.78;;;3.35;;
64757;SDS011;51193;45.588;5.376;2022-07-21T13:03:27;5.65;;;2.92;;
64757;SDS011;51193;45.588;5.376;2022-07-21T13:05:54;4.65;;;2.83;;
64757;SDS011;51193;45.588;5.376;2022-07-21T13:08:19;7.43;;;3.53;;
64757;SDS011;51193;45.588;5.376;2022-07-21T13:10:45;6.30;;;3.40;;
64757;SDS011;51193;45.588;5.376;2022-07-21T13:13:10;9.27;;;3.42;;
64757;SDS011;51193;45.588;5.376;2022-07-21T13:15:35;8.98;;;3.15;;
64757;SDS011;51193;45.588;5.376;2022-07-21T13:18:01;5.28;;;3.22;;
64757;SDS011;51193;45.588;5.376;2022-07-21T13:20:26;7.63;;;3.28;;
64757;SDS011;51193;45.588;5.376;2022-07-21T13:22:52;17.20;;;3.50;;
64757;SDS011;51193;45.588;5.376;2022-07-21T13:25:17;5.50;;;3.58;;
64757;SDS011;51193;45.588;5.376;2022-07-21T13:27:43;5.18;;;3.03;;
64757;SDS011;51193;45.588;5.376;2022-07-21T13:30:08;6.45;;;3.08;;
64757;SDS011;51193;45.588;5.376;2022-07-21T13:32:34;5.32;;;3.17;;
64757;SDS011;51193;45.588;5.376;2022-07-21T13:35:00;4.30;;;3.10;;
64757;SDS011;51193;45.588;5.376;2022-07-21T13:37:26;8.63;;;3.58;;
64757;SDS011;51193;45.588;5.376;2022-07-21T13:39:51;12.15;;;3.47;;
64757;SDS011;51193;45.588;5.376;2022-07-21T13:42:17;4.38;;;3.40;;
64757;SDS011;51193;45.588;5.376;2022-07-21T13:44:42;6.95;;;3.63;;
64757;SDS011;51193;45.588;5.376;2022-07-21T13:47:08;7.28;;;3.55;;
64757;SDS011;51193;45.588;5.376;2022-07-21T13:49:33;9.65;;;3.50;;
64757;SDS011;51193;45.588;5.376;2022-07-21T13:51:59;4.43;;;3.38;;
64757;SDS011;51193;45.588;5.376;2022-07-21T13:54:24;5.30;;;3.50;;
64757;SDS011;51193;45.588;5.376;2022-07-21T13:56:50;7.10;;;3.45;;
64757;SDS011;51193;45.588;5.376;2022-07-21T13:59:15;5.78;;;3.40;;
64757;SDS011;51193;45.588;5.376;2022-07-21T14:01:41;5.50;;;2.85;;
64757;SDS011;51193;45.588;5.376;2022-07-21T14:04:07;9.07;;;3.50;;
64757;SDS011;51193;45.588;5.376;2022-07-21T14:06:33;6.05;;;3.58;;
64757;SDS011;51193;45.588;5.376;2022-07-21T14:08:58;5.18;;;3.17;;
64757;SDS011;51193;45.588;5.376;2022-07-21T14:11:24;5.75;;;3.55;;
64757;SDS011;51193;45.588;5.376;2022-07-21T14:13:52;4.18;;;3.20;;
64757;SDS011;51193;45.588;5.376;2022-07-21T14:16:18;5.22;;;3.67;;
64757;SDS011;51193;45.588;5.376;2022-07-21T14:18:43;4.47;;;3.22;;
64757;SDS011;51193;45.588;5.376;2022-07-21T14:21:09;6.55;;;3.28;;
64757;SDS011;51193;45.588;5.376;2022-07-21T14:23:34;4.60;;;3.42;;
64757;SDS011;51193;45.588;5.376;2022-07-21T14:26:00;5.05;;;3.20;;
64757;SDS011;51193;45.588;5.376;2022-07-21T14:28:26;3.92;;;3.20;;
64757;SDS011;51193;45.588;5.376;2022-07-21T14:30:52;8.77;;;3.70;;
64757;SDS011;51193;45.588;5.376;2022-07-21T14:33:17;4.10;;;3.15;;
64757;SDS011;51193;45.588;5.376;2022-07-21T14:35:43;4.32;;;3.35;;
64757;SDS011;51193;45.588;5.376;2022-07-21T14:38:09;6.38;;;3.10;;
64757;SDS011;51193;45.588;5.376;2022-07-21T14:40:35;6.57;;;3.25;;
64757;SDS011;51193;45.588;5.376;2022-07-21T14:43:01;5.85;;;3.15;;
64757;SDS011;51193;45.588;5.376;2022-07-21T14:45:26;9.52;;;3.50;;
64757;SDS011;51193;45.588;5.376;2022-07-21T14:47:52;5.60;;;3.50;;
64757;SDS011;51193;45.588;5.376;2022-07-21T14:50:20;6.30;;;3.40;;
64757;SDS011;51193;45.588;5.376;2022-07-21T14:52:47;4.72;;;3.30;;
64757;SDS011;51193;45.588;5.376;2022-07-21T14:55:12;5.75;;;3.40;;
64757;SDS011;51193;45.588;5.376;2022-07-21T14:57:38;10.40;;;3.50;;
64757;SDS011;51193;45.588;5.376;2022-07-21T15:00:04;5.82;;;3.58;;
64757;SDS011;51193;45.588;5.376;2022-07-21T15:02:31;5.18;;;3.30;;
64757;SDS011;51193;45.588;5.376;2022-07-21T15:04:57;6.07;;;3.55;;
64757;SDS011;51193;45.588;5.376;2022-07-21T15:07:22;6.25;;;3.45;;
64757;SDS011;51193;45.588;5.376;2022-07-21T15:09:47;5.57;;;3.58;;
64757;SDS011;51193;45.588;5.376;2022-07-21T15:12:13;4.88;;;3.20;;
64757;SDS011;51193;45.588;5.376;2022-07-21T15:14:39;7.63;;;3.28;;
64757;SDS011;51193;45.588;5.376;2022-07-21T15:17:04;8.63;;;3.35;;
64757;SDS011;51193;45.588;5.376;2022-07-21T15:19:30;4.78;;;3.17;;
64757;SDS011;51193;45.588;5.376;2022-07-21T15:21:56;10.13;;;3.78;;